»·PEaware :: ASA1672 KSAN-KSEA

ASA1672 :: KSAN-KSEA

FLIGHT INFORMATION

Flight Status: Arrived
Operator:
Alaska Airlines
More flights by this operator :: More flights under this callsign
Pilot: Chuck O. (4337)
Aircraft: BOEING 737-700
(B737)
More flights by this aircraft type
Origin: KSAN San Diego Intl-Lindbergh
United States
Destination: KSEA Seattle-Tacoma Intl
United States
More flights between these airports :: More routes between these airports
Route: PADRZ2 EHF SHIMR LKV BTG HAWZ6
File this flight plan on PilotEdge
Remarks:
Altitude:
(Current/Filed)
400ft
Speed:
(Current/Filed)
450kts
Departed: 11-May-18 08:53 AM
Arrived: 11-May-18 10:34 AM
Distance/Time
Traveled:
913nm/1:41
Distance/Time
To Go:
Arrived

Flight Plot

Page will automatically refresh every two minutes.

Flight plan parsing failed; only flown route is shown


Map Options




Map Legend


Flown Route
Filed Route
Departure Airport
Arrival Airport
Navaid (VOR, NDB)
Fix

Horizontal Profiles

Position Reports

Time Latitude Longitude Heading Altitude Ground
Speed
11-May-18 08:52 38.485511 -120.119713 348 39953ft 385kts
11-May-18 08:53 38.565460 -120.127122 348 39964ft 385kts
11-May-18 08:54 38.672206 -120.136910 348 39978ft 385kts
11-May-18 08:55 38.778826 -120.146694 348 39994ft 384kts
11-May-18 08:56 38.884004 -120.156369 348 40002ft 384kts
11-May-18 08:57 38.990074 -120.166152 348 40010ft 382kts
11-May-18 08:58 39.095150 -120.175869 348 40021ft 382kts
11-May-18 08:59 39.201451 -120.185732 347 40042ft 382kts
11-May-18 09:00 39.307181 -120.195570 347 40062ft 380kts
11-May-18 09:01 39.412957 -120.205441 347 40062ft 381kts
11-May-18 09:02 39.518837 -120.215355 347 40054ft 381kts
11-May-18 09:03 39.624425 -120.225271 347 40048ft 380kts
11-May-18 09:04 39.730133 -120.235226 346 40046ft 380kts
11-May-18 09:05 39.834102 -120.245050 346 40051ft 381kts
11-May-18 09:06 39.939676 -120.255057 346 40058ft 381kts
11-May-18 09:07 40.045681 -120.265135 346 40069ft 381kts
11-May-18 09:08 40.151459 -120.275223 346 40078ft 382kts
11-May-18 09:09 40.257141 -120.285333 347 40079ft 382kts
11-May-18 09:10 40.363436 -120.295532 347 40082ft 382kts
11-May-18 09:11 40.469551 -120.305751 347 40088ft 383kts
11-May-18 09:12 40.574320 -120.315866 347 40088ft 385kts
11-May-18 09:13 40.681450 -120.326246 348 40089ft 386kts
11-May-18 09:14 40.788950 -120.336694 348 40091ft 388kts
11-May-18 09:15 40.897318 -120.347262 348 40095ft 391kts
11-May-18 09:16 41.005813 -120.357875 349 40102ft 393kts
11-May-18 09:17 41.114924 -120.368584 349 40109ft 395kts
11-May-18 09:18 41.225314 -120.379456 350 40113ft 398kts
11-May-18 09:19 41.336146 -120.390408 350 40117ft 400kts
11-May-18 09:20 41.447373 -120.401436 350 40119ft 404kts
11-May-18 09:21 41.559525 -120.412594 350 40121ft 405kts
11-May-18 09:22 41.672251 -120.423852 351 40123ft 407kts
11-May-18 09:23 41.785852 -120.435231 351 40130ft 409kts
11-May-18 09:24 41.894231 -120.446128 351 40139ft 410kts
11-May-18 09:25 42.007918 -120.457600 351 40145ft 411kts
11-May-18 09:26 42.122756 -120.469232 351 40147ft 413kts
11-May-18 09:27 42.237145 -120.480824 351 40149ft 412kts
11-May-18 09:28 42.351172 -120.492466 351 40148ft 411kts
11-May-18 09:29 42.463136 -120.504837 347 40148ft 409kts
11-May-18 09:30 42.569322 -120.555002 335 40147ft 404kts
11-May-18 09:31 42.672059 -120.616275 334 40152ft 403kts
11-May-18 09:32 42.774849 -120.678541 334 40154ft 403kts
11-May-18 09:33 42.877195 -120.740666 334 40157ft 403kts
11-May-18 09:34 42.979860 -120.803337 334 40160ft 403kts
11-May-18 09:35 43.082101 -120.866108 334 40164ft 403kts
11-May-18 09:36 43.184312 -120.929139 334 40169ft 404kts
11-May-18 09:37 43.287020 -120.992732 335 40175ft 404kts
11-May-18 09:38 43.389267 -121.056281 335 40182ft 404kts
11-May-18 09:39 43.491568 -121.120104 335 40190ft 404kts
11-May-18 09:40 43.594055 -121.184283 335 40206ft 404kts
11-May-18 09:41 43.696298 -121.248551 335 40220ft 403kts
11-May-18 09:42 43.798502 -121.313036 335 40221ft 403kts
11-May-18 09:43 43.900347 -121.377538 335 40219ft 403kts
11-May-18 09:44 44.001954 -121.442133 335 40221ft 402kts
11-May-18 09:45 44.104442 -121.507537 335 40221ft 404kts
11-May-18 09:46 44.206439 -121.572873 335 40226ft 403kts
11-May-18 09:47 44.308201 -121.638311 335 40236ft 403kts
11-May-18 09:48 44.410292 -121.704214 335 40244ft 403kts
11-May-18 09:49 44.512207 -121.770257 335 40254ft 404kts
11-May-18 09:50 44.614131 -121.836562 335 40266ft 404kts
11-May-18 09:51 44.716602 -121.903485 335 40277ft 405kts
11-May-18 09:52 44.818756 -121.970462 335 40287ft 406kts
11-May-18 09:53 44.921065 -122.037808 336 40297ft 400kts
11-May-18 09:54 45.020768 -122.103690 336 40309ft 396kts
11-May-18 09:55 45.120525 -122.169866 336 40317ft 396kts
11-May-18 09:56 45.220606 -122.236516 336 40326ft 396kts
11-May-18 09:57 45.320446 -122.303266 336 40342ft 398kts
11-May-18 09:58 45.418574 -122.369130 336 40347ft 399kts
11-May-18 09:59 45.518269 -122.436068 336 40348ft 399kts
11-May-18 10:00 45.618067 -122.503648 336 40349ft 399kts
11-May-18 10:01 45.718696 -122.571859 338 40347ft 398kts
11-May-18 10:02 45.825633 -122.610247 349 39719ft 393kts
11-May-18 10:03 45.932724 -122.637059 350 38721ft 389kts
11-May-18 10:04 46.039266 -122.663413 350 36340ft 386kts
11-May-18 10:05 46.144468 -122.687194 353 33441ft 375kts
11-May-18 10:06 46.242088 -122.706391 353 31256ft 346kts
11-May-18 10:07 46.334715 -122.723080 358 29187ft 323kts
11-May-18 10:08 46.424813 -122.726085 359 27137ft 335kts
11-May-18 10:09 46.517828 -122.729261 1 25022ft 330kts
11-May-18 10:10 46.608273 -122.732509 1 22990ft 320kts
11-May-18 10:11 46.696021 -122.735724 1 21032ft 311kts
11-May-18 10:12 46.780780 -122.731307 21 19153ft 300kts
11-May-18 10:13 46.851261 -122.661304 38 17161ft 309kts
11-May-18 10:14 46.917855 -122.584786 35 15219ft 296kts
11-May-18 10:15 46.987813 -122.540279 16 14179ft 275kts
11-May-18 10:16 47.060701 -122.508019 16 13008ft 273kts
11-May-18 10:17 47.134506 -122.489829 7 11855ft 270kts
11-May-18 10:18 47.196236 -122.479013 6 10866ft 268kts
11-May-18 10:19 47.268881 -122.467889 6 9766ft 255kts
11-May-18 10:20 47.326136 -122.459073 5 8873ft 248kts
11-May-18 10:21 47.393695 -122.454459 359 7825ft 239kts
11-May-18 10:22 47.459105 -122.454846 0 6976ft 221kts
11-May-18 10:23 47.514929 -122.453974 0 6219ft 191kts
11-May-18 10:24 47.567301 -122.452816 0 4696ft 187kts
11-May-18 10:25 47.618530 -122.450886 0 3282ft 182kts
11-May-18 10:26 47.661340 -122.448743 0 2989ft 175kts
11-May-18 10:27 47.690010 -122.409770 102 3010ft 184kts
11-May-18 10:28 47.670427 -122.342523 142 2994ft 174kts
11-May-18 10:29 47.629037 -122.316355 179 2988ft 161kts
11-May-18 10:30 47.585698 -122.316823 181 2828ft 145kts
11-May-18 10:31 47.546662 -122.317169 181 2055ft 137kts
11-May-18 10:32 47.509499 -122.317484 180 1343ft 131kts
11-May-18 10:33 47.473198 -122.317792 180 653ft 130kts
11-May-18 10:34 47.451322 -122.317963 180 441ft 23kts
11-May-18 10:35 47.447948 -122.316744 151 441ft 0kts
11-May-18 10:36 47.447944 -122.316741 151 441ft 1kts
11-May-18 10:37 47.446492 -122.314140 99 441ft 11kts
11-May-18 10:38 47.444670 -122.309450 155 441ft 16kts
11-May-18 10:39 47.443661 -122.306587 42 441ft 0kts
11-May-18 10:40 47.443934 -122.306247 28 441ft 0kts
11-May-18 10:41 47.447412 -122.305736 44 441ft 9kts
11-May-18 10:42 47.447652 -122.304889 84 441ft 0kts
11-May-18 10:43 47.447197 -122.302714 123 441ft 2kts
11-May-18 10:44 47.446367 -122.302992 247 441ft 2kts
11-May-18 10:45 47.446348 -122.303063 246 441ft 0kts
11-May-18 10:46 47.446348 -122.303063 246 441ft 0kts
11-May-18 10:47 47.446348 -122.303063 246 441ft 0kts
11-May-18 10:48 47.446348 -122.303063 246 441ft 0kts
11-May-18 10:49 47.446348 -122.303063 246 441ft 0kts

Navigation Log

Ident Type
Flight plan parsing failed, navigation log unavailable